| Date | Time | Temp. (oF) | Dew Point (oF) | Rel. Hum. (%) | Press. (in.) | Wind Dir. | Wind Speed (mph) | Hourly Rainfall (in.) |
|
|---|---|---|---|---|---|---|---|---|---|
| 1 | 12/28 | 00:00 | 38 | 35 | 91 | 30.34 | SSE | 4 | 0.00 |
| 2 | 12/27 | 23:00 | 38 | 34 | 87 | 30.35 | S | 3 | 0.00 |
| 3 | 12/27 | 22:00 | 39 | 34 | 84 | 30.41 | ESE | 3 | 0.00 |
| 4 | 12/27 | 21:00 | 39 | 34 | 83 | 30.43 | ESE | 6 | 0.00 |
| 5 | 12/27 | 20:00 | 39 | 33 | 80 | 30.46 | SE | 3 | 0.00 |
| 6 | 12/27 | 19:00 | 39 | 31 | 74 | 30.47 | ESE | 3 | 0.00 |
| 7 | 12/27 | 18:00 | 40 | 30 | 68 | 30.46 | E | 5 | 0.00 |
| 8 | 12/27 | 17:00 | 41 | 30 | 67 | 30.46 | SE | 5 | 0.00 |
| 9 | 12/27 | 16:00 | 44 | 32 | 63 | 30.45 | SE | 4 | 0.00 |
| 10 | 12/27 | 15:00 | 44 | 31 | 61 | 30.45 | SE | 5 | 0.00 |
| 11 | 12/27 | 14:00 | 46 | 32 | 59 | 30.48 | SE | 4 | 0.00 |
| 12 | 12/27 | 13:00 | 45 | 33 | 63 | 30.50 | SSE | 7 | 0.00 |
| 13 | 12/27 | 12:00 | 44 | 34 | 68 | 30.53 | SE | 8 | 0.00 |
| 14 | 12/27 | 11:00 | 40 | 35 | 83 | 30.54 | E | 4 | 0.00 |
| 15 | 12/27 | 10:00 | 32 | 31 | 98 | 30.58 | ENE | 1 | 0.00 |
| 16 | 12/27 | 09:00 | 26 | 26 | 100 | 30.59 | NE | 1 | 0.00 |
| 17 | 12/27 | 08:00 | 23 | 22 | 99 | 30.58 | NNW | 0 | 0.00 |
| 18 | 12/27 | 07:00 | 23 | 22 | 99 | 30.57 | NNW | 1 | 0.00 |
| 19 | 12/27 | 06:00 | 23 | 22 | 99 | 30.55 | NNW | 1 | 0.00 |
| 20 | 12/27 | 05:00 | 24 | 23 | 98 | 30.54 | NNW | 1 | 0.00 |
| 21 | 12/27 | 04:00 | 24 | 23 | 99 | 30.53 | SW | 1 | 0.00 |
| 22 | 12/27 | 03:00 | 24 | 23 | 98 | 30.52 | SW | 0 | 0.00 |
| 23 | 12/27 | 02:00 | 25 | 24 | 97 | 30.52 | SW | 1 | 0.00 |
| 24 | 12/27 | 01:00 | 26 | 25 | 97 | 30.49 | SW | 1 | 0.00 |